Time;durP1;ratioP1;P1;durP2;ratioP2;P2;SDS_P1;SDS_P2;PMS_P1;PMS_P2;Temp;Humidity;BMP_temperature;BMP_pressure;BME280_temperature;BME280_humidity;BME280_pressure;Samples;Min_cycle;Max_cycle;Signal;HPM_P1;HPM_P2
2022/03/07 00:01:22;;;;;;;;;;;13.40;50.90;;;;;;5089554;28;19928;-70
2022/03/07 00:03:49;;;;;;;;;;;13.40;50.90;;;;;;5091754;28;19935;-70
2022/03/07 00:06:16;;;;;;;;;;;13.40;50.90;;;;;;5092125;28;19930;-70
2022/03/07 00:08:42;;;;;;;;;;;14.20;51.30;;;;;;5091144;28;19930;-70
2022/03/07 00:11:09;;;;;;;;;;;13.40;50.90;;;;;;5093851;28;19930;-70
2022/03/07 00:13:36;;;;;;;;;;;13.40;50.80;;;;;;5093898;28;19931;-70
2022/03/07 00:16:02;;;;;;;;;;;13.40;50.80;;;;;;5074884;28;20297;-71
2022/03/07 00:18:29;;;;;;;;;;;13.40;50.80;;;;;;5075951;28;19978;-70
2022/03/07 00:20:57;;;;;;;;;;;13.90;51.10;;;;;;5075742;28;19931;-70
2022/03/07 00:23:23;;;;;;;;;;;13.90;51.10;;;;;;5074860;28;19924;-71
2022/03/07 00:25:50;;;;;;;;;;;14.20;51.30;;;;;;5075609;28;19931;-70
2022/03/07 00:28:17;;;;;;;;;;;13.30;50.70;;;;;;5076002;28;19924;-70
2022/03/07 00:30:43;;;;;;;;;;;13.30;50.80;;;;;;5077015;28;19924;-70
2022/03/07 00:33:10;;;;;;;;;;;13.30;50.80;;;;;;5074738;28;19971;-70
2022/03/07 00:35:36;;;;;;;;;;;13.30;50.80;;;;;;5074269;28;20003;-70
2022/03/07 00:38:04;;;;;;;;;;;13.30;50.80;;;;;;5074223;28;19931;-71
2022/03/07 00:40:31;;;;;;;;;;;13.30;50.80;;;;;;5074331;28;19931;-70
2022/03/07 00:42:57;;;;;;;;;;;14.10;51.20;;;;;;5075396;28;20018;-71
2022/03/07 00:45:24;;;;;;;;;;;13.20;50.70;;;;;;5075422;28;19925;-71
2022/03/07 00:47:51;;;;;;;;;;;13.40;50.80;;;;;;5075314;28;19925;-70
2022/03/07 00:50:17;;;;;;;;;;;13.60;50.90;;;;;;5074331;28;20295;-70
2022/03/07 00:52:44;;;;;;;;;;;13.20;50.70;;;;;;5074090;28;19924;-70
2022/03/07 00:55:12;;;;;;;;;;;13.20;50.70;;;;;;5075438;28;19956;-70
2022/03/07 00:57:38;;;;;;;;;;;13.90;51.10;;;;;;5075174;28;20011;-70
2022/03/07 01:00:06;;;;;;;;;;;13.20;50.70;;;;;;5074199;28;19925;-70
2022/03/07 01:02:33;;;;;;;;;;;13.20;50.70;;;;;;5075126;28;19924;-70
2022/03/07 01:05:00;;;;;;;;;;;13.10;50.60;;;;;;5076455;28;20334;-71
2022/03/07 01:07:27;;;;;;;;;;;13.10;50.70;;;;;;5073631;28;19934;-70
2022/03/07 01:09:54;;;;;;;;;;;14.00;51.20;;;;;;5074932;28;20385;-70
2022/03/07 01:12:21;;;;;;;;;;;13.10;50.70;;;;;;5074982;28;19924;-70
2022/03/07 01:14:48;;;;;;;;;;;13.80;51.10;;;;;;5073429;28;19925;-70
2022/03/07 01:17:15;;;;;;;;;;;13.60;51.00;;;;;;5073696;28;19999;-70
2022/03/07 01:19:41;;;;;;;;;;;13.00;50.70;;;;;;5075139;28;19925;-70
2022/03/07 01:22:08;;;;;;;;;;;13.40;50.90;;;;;;5075773;28;19931;-71
2022/03/07 01:24:36;;;;;;;;;;;13.00;50.60;;;;;;5073308;28;19931;-70
2022/03/07 01:27:03;;;;;;;;;;;13.30;50.80;;;;;;5074476;28;19924;-71
2022/03/07 01:29:30;;;;;;;;;;;13.00;50.60;;;;;;5074632;28;19925;-70
2022/03/07 01:31:57;;;;;;;;;;;12.40;50.40;;;;;;5074646;28;19929;-70
2022/03/07 01:34:23;;;;;;;;;;;13.20;50.80;;;;;;5074771;28;19924;-70
2022/03/07 01:36:50;;;;;;;;;;;13.00;50.70;;;;;;5074358;28;19925;-71
2022/03/07 01:39:17;;;;;;;;;;;13.00;50.70;;;;;;5074616;28;20385;-71
2022/03/07 01:41:44;;;;;;;;;;;13.00;50.60;;;;;;5074577;28;20369;-70
2022/03/07 01:44:17;;;;;;;;;;;13.30;50.70;;;;;;5073502;28;20397;-70
2022/03/07 01:46:45;;;;;;;;;;;13.00;50.60;;;;;;5073810;28;20381;-70
2022/03/07 01:49:11;;;;;;;;;;;13.00;50.70;;;;;;5074350;28;20308;-70
2022/03/07 01:51:38;;;;;;;;;;;13.80;51.70;;;;;;5074338;28;20010;-70
2022/03/07 01:54:05;;;;;;;;;;;13.00;50.70;;;;;;5073365;28;20389;-70
2022/03/07 01:56:32;;;;;;;;;;;13.00;50.60;;;;;;5074977;28;19931;-70
2022/03/07 01:58:58;;;;;;;;;;;12.90;50.50;;;;;;5074375;28;19924;-70
2022/03/07 02:01:25;;;;;;;;;;;13.00;50.50;;;;;;5072823;28;19924;-71
2022/03/07 02:03:53;;;;;;;;;;;12.90;50.50;;;;;;5074058;28;19931;-71
2022/03/07 02:06:19;;;;;;;;;;;13.80;51.00;;;;;;5073947;28;19924;-71
2022/03/07 02:08:46;;;;;;;;;;;13.60;50.90;;;;;;5073800;28;19930;-70
2022/03/07 02:11:12;;;;;;;;;;;13.60;50.80;;;;;;5073547;28;19925;-70
2022/03/07 02:13:39;;;;;;;;;;;13.00;50.50;;;;;;5073932;28;20037;-70
2022/03/07 02:16:06;;;;;;;;;;;13.90;51.00;;;;;;5073453;28;19925;-70
2022/03/07 02:18:33;;;;;;;;;;;13.00;50.50;;;;;;5072695;28;19925;-70
2022/03/07 02:21:01;;;;;;;;;;;12.90;50.40;;;;;;5073790;28;19967;-71
2022/03/07 02:23:29;;;;;;;;;;;12.90;50.40;;;;;;5073327;28;20335;-70
2022/03/07 02:25:56;;;;;;;;;;;13.00;50.40;;;;;;5073176;28;19924;-70
2022/03/07 02:28:22;;;;;;;;;;;13.00;50.50;;;;;;5073649;28;19925;-70
2022/03/07 02:30:51;;;;;;;;;;;12.90;50.40;;;;;;5073130;28;19924;-70
2022/03/07 02:33:17;;;;;;;;;;;13.20;50.60;;;;;;5073228;28;20304;-70
2022/03/07 02:35:44;;;;;;;;;;;13.00;50.40;;;;;;5073290;28;20158;-71
2022/03/07 02:38:14;;;;;;;;;;;12.90;50.40;;;;;;5073500;28;19935;-70
2022/03/07 02:40:43;;;;;;;;;;;12.90;50.40;;;;;;5073480;28;19924;-70
2022/03/07 02:43:10;;;;;;;;;;;12.90;51.00;;;;;;5072289;28;19925;-71
2022/03/07 02:45:37;;;;;;;;;;;13.70;50.90;;;;;;5071861;28;19949;-70
2022/03/07 02:48:04;;;;;;;;;;;12.90;50.40;;;;;;5073287;28;19924;-70
2022/03/07 02:50:31;;;;;;;;;;;12.90;50.50;;;;;;5073269;28;19928;-70
2022/03/07 02:52:57;;;;;;;;;;;13.40;50.80;;;;;;5072898;28;20026;-70
2022/03/07 02:55:24;;;;;;;;;;;12.90;50.50;;;;;;5072032;28;19924;-70
2022/03/07 02:57:52;;;;;;;;;;;12.90;50.50;;;;;;5073050;28;19931;-70
2022/03/07 03:00:18;;;;;;;;;;;13.70;50.90;;;;;;5073026;28;19924;-71
2022/03/07 03:02:45;;;;;;;;;;;13.80;50.90;;;;;;5071901;28;19924;-70
2022/03/07 03:05:11;;;;;;;;;;;13.40;50.70;;;;;;5071732;28;19925;-70
2022/03/07 03:07:38;;;;;;;;;;;13.40;50.70;;;;;;5073068;28;19929;-70
2022/03/07 03:10:05;;;;;;;;;;;13.20;50.50;;;;;;5072962;28;19924;-71
2022/03/07 03:12:31;;;;;;;;;;;13.10;50.40;;;;;;5071430;28;19924;-70
2022/03/07 03:14:59;;;;;;;;;;;13.10;50.50;;;;;;5072917;28;19929;-70
2022/03/07 03:17:26;;;;;;;;;;;13.10;50.40;;;;;;5072354;28;20381;-70
2022/03/07 03:19:53;;;;;;;;;;;13.50;50.70;;;;;;5072521;28;19931;-70
2022/03/07 03:22:20;;;;;;;;;;;13.10;50.50;;;;;;5073030;28;19928;-70
2022/03/07 03:24:46;;;;;;;;;;;13.40;50.70;;;;;;5073741;28;19993;-70
2022/03/07 03:27:13;;;;;;;;;;;13.10;50.50;;;;;;5072355;28;19924;-71
2022/03/07 03:29:40;;;;;;;;;;;13.10;50.50;;;;;;5054696;28;19924;-70
2022/03/07 03:32:08;;;;;;;;;;;13.10;50.50;;;;;;5072476;28;19925;-70
2022/03/07 03:34:35;;;;;;;;;;;13.10;50.50;;;;;;5072391;28;20304;-70
2022/03/07 03:37:01;;;;;;;;;;;13.10;50.50;;;;;;5070889;28;19972;-70
2022/03/07 03:39:28;;;;;;;;;;;13.10;50.50;;;;;;5073397;28;19928;-70
2022/03/07 03:41:54;;;;;;;;;;;13.10;50.50;;;;;;5072287;28;19924;-70
2022/03/07 03:44:21;;;;;;;;;;;13.10;50.50;;;;;;5072277;28;19924;-70
2022/03/07 03:46:48;;;;;;;;;;;13.40;50.70;;;;;;5071582;28;19931;-70
2022/03/07 03:49:15;;;;;;;;;;;13.90;50.90;;;;;;5072276;28;19931;-70
2022/03/07 03:51:42;;;;;;;;;;;13.80;50.80;;;;;;5070992;28;19931;-71
2022/03/07 03:54:09;;;;;;;;;;;13.20;50.50;;;;;;5073298;28;19935;-70
2022/03/07 03:56:36;;;;;;;;;;;13.90;50.90;;;;;;5071010;28;19925;-70
2022/03/07 03:59:03;;;;;;;;;;;13.20;50.50;;;;;;5070967;28;19924;-70
2022/03/07 04:01:29;;;;;;;;;;;13.20;50.50;;;;;;5072095;28;19933;-71
2022/03/07 04:03:56;;;;;;;;;;;13.60;50.70;;;;;;5072339;28;19925;-70
2022/03/07 04:06:23;;;;;;;;;;;13.40;50.60;;;;;;5071727;28;19925;-71
2022/03/07 04:09:08;;;;;;;;;;;13.70;50.70;;;;;;5071052;28;19931;-71
2022/03/07 04:11:34;;;;;;;;;;;13.20;50.40;;;;;;5072170;28;19924;-71
2022/03/07 04:14:02;;;;;;;;;;;13.20;50.40;;;;;;5072250;28;19931;-70
2022/03/07 04:16:28;;;;;;;;;;;14.10;50.90;;;;;;5070352;28;19932;-70
2022/03/07 04:18:55;;;;;;;;;;;13.20;50.50;;;;;;5072006;28;19928;-70
2022/03/07 04:21:22;;;;;;;;;;;13.80;50.80;;;;;;5072051;28;19925;-70
2022/03/07 04:23:50;;;;;;;;;;;13.20;50.40;;;;;;5070998;28;19928;-70
2022/03/07 04:26:17;;;;;;;;;;;13.60;50.60;;;;;;5072626;28;20397;-70
2022/03/07 04:28:44;;;;;;;;;;;13.20;50.40;;;;;;5072025;28;20292;-70
2022/03/07 04:31:11;;;;;;;;;;;13.20;50.40;;;;;;5070606;28;19931;-71
2022/03/07 04:33:38;;;;;;;;;;;13.60;50.60;;;;;;5070861;28;19931;-70
2022/03/07 04:36:05;;;;;;;;;;;13.90;50.70;;;;;;5070595;28;20383;-70
2022/03/07 04:38:32;;;;;;;;;;;13.20;50.40;;;;;;5070538;28;19972;-70
2022/03/07 04:41:00;;;;;;;;;;;13.20;50.30;;;;;;5072956;28;19978;-70
2022/03/07 04:43:26;;;;;;;;;;;13.50;50.50;;;;;;5071951;28;19924;-70
2022/03/07 04:45:53;;;;;;;;;;;13.20;50.40;;;;;;5071565;28;19924;-71
2022/03/07 04:48:20;;;;;;;;;;;13.20;50.40;;;;;;5070793;28;19931;-70
2022/03/07 04:50:46;;;;;;;;;;;13.20;50.30;;;;;;5070652;28;20370;-70
2022/03/07 04:53:13;;;;;;;;;;;14.10;50.90;;;;;;5070436;28;20393;-70
2022/03/07 04:55:39;;;;;;;;;;;13.20;50.40;;;;;;5071588;28;20313;-70
2022/03/07 04:58:07;;;;;;;;;;;13.70;50.60;;;;;;5075589;28;20579;-70
2022/03/07 05:00:34;;;;;;;;;;;13.30;50.40;;;;;;5073785;28;19931;-70
2022/03/07 05:03:01;;;;;;;;;;;13.30;50.40;;;;;;5075278;28;19931;-70
2022/03/07 05:05:27;;;;;;;;;;;13.20;50.40;;;;;;5073778;28;19924;-70
2022/03/07 05:07:54;;;;;;;;;;;13.20;50.30;;;;;;5074980;28;20389;-70
2022/03/07 05:10:21;;;;;;;;;;;13.30;50.40;;;;;;5074856;28;19925;-70
2022/03/07 05:12:47;;;;;;;;;;;13.50;50.50;;;;;;5076234;28;19925;-69
2022/03/07 05:15:15;;;;;;;;;;;13.30;50.40;;;;;;5074769;28;19931;-70
2022/03/07 05:17:42;;;;;;;;;;;13.30;50.40;;;;;;5074770;28;19931;-71
2022/03/07 05:20:10;;;;;;;;;;;13.90;50.70;;;;;;5073896;28;20219;-70
2022/03/07 05:22:36;;;;;;;;;;;13.30;50.30;;;;;;5074858;28;19946;-70
2022/03/07 05:25:04;;;;;;;;;;;13.30;50.70;;;;;;5074654;28;20029;-70
2022/03/07 05:27:30;;;;;;;;;;;13.30;50.30;;;;;;5074382;28;19935;-70
2022/03/07 05:29:57;;;;;;;;;;;13.30;50.30;;;;;;5074986;28;19924;-70
2022/03/07 05:32:25;;;;;;;;;;;13.30;50.30;;;;;;5074875;28;19975;-70
2022/03/07 05:34:52;;;;;;;;;;;13.70;50.50;;;;;;5074699;28;19924;-70
2022/03/07 05:37:18;;;;;;;;;;;13.30;50.30;;;;;;5074378;28;19924;-71
2022/03/07 05:39:45;;;;;;;;;;;13.30;50.30;;;;;;5074531;28;19929;-70
2022/03/07 05:42:12;;;;;;;;;;;13.80;50.50;;;;;;5073229;28;19976;-70
2022/03/07 05:44:38;;;;;;;;;;;13.30;50.30;;;;;;5075568;28;20417;-71
2022/03/07 05:47:05;;;;;;;;;;;13.30;50.30;;;;;;5073733;28;20419;-70
2022/03/07 05:49:33;;;;;;;;;;;13.30;50.30;;;;;;5073359;28;19924;-70
2022/03/07 05:51:59;;;;;;;;;;;13.30;50.30;;;;;;5074535;28;19976;-70
2022/03/07 05:54:26;;;;;;;;;;;13.70;50.50;;;;;;5074443;28;19931;-70
2022/03/07 05:56:52;;;;;;;;;;;13.30;50.30;;;;;;5074115;28;19925;-70
2022/03/07 05:59:19;;;;;;;;;;;13.30;50.30;;;;;;5075289;28;19970;-70
2022/03/07 06:01:46;;;;;;;;;;;13.30;50.30;;;;;;5073977;28;19924;-72
2022/03/07 06:04:12;;;;;;;;;;;13.30;50.30;;;;;;5073072;28;20011;-72
2022/03/07 06:06:40;;;;;;;;;;;13.30;50.30;;;;;;5073760;28;19924;-70
2022/03/07 06:09:07;;;;;;;;;;;13.40;50.30;;;;;;5071845;28;19931;-72
2022/03/07 06:11:34;;;;;;;;;;;13.30;50.30;;;;;;5078328;28;19931;-70
2022/03/07 06:14:00;;;;;;;;;;;13.30;50.20;;;;;;5075582;28;19928;-71
2022/03/07 06:16:27;;;;;;;;;;;13.30;50.30;;;;;;5073568;28;20415;-71
2022/03/07 06:18:53;;;;;;;;;;;13.30;50.30;;;;;;5088492;28;20367;-70
2022/03/07 06:21:20;;;;;;;;;;;13.30;50.30;;;;;;5094164;28;20010;-71
2022/03/07 06:23:51;;;;;;;;;;;13.30;50.70;;;;;;5093864;28;19930;-71
2022/03/07 06:26:18;;;;;;;;;;;13.30;50.30;;;;;;5093551;28;19923;-69
2022/03/07 06:28:44;;;;;;;;;;;13.30;51.20;;;;;;5093945;28;19924;-70
2022/03/07 06:31:11;;;;;;;;;;;13.50;50.40;;;;;;5076130;28;20038;-71
2022/03/07 06:33:37;;;;;;;;;;;13.30;50.20;;;;;;5074064;28;19924;-70
2022/03/07 06:36:05;;;;;;;;;;;13.30;50.20;;;;;;5073481;28;19924;-70
2022/03/07 06:38:31;;;;;;;;;;;14.00;50.60;;;;;;5073250;28;19931;-71
2022/03/07 06:40:59;;;;;;;;;;;13.40;50.20;;;;;;5073220;28;20300;-70
2022/03/07 06:43:26;;;;;;;;;;;13.40;50.10;;;;;;5073639;28;19947;-69
2022/03/07 06:45:54;;;;;;;;;;;13.40;50.10;;;;;;5072761;28;19924;-70
2022/03/07 06:48:21;;;;;;;;;;;13.50;50.20;;;;;;5071757;28;19982;-70
2022/03/07 06:50:47;;;;;;;;;;;13.40;50.10;;;;;;5081181;28;19924;-71
2022/03/07 06:53:14;;;;;;;;;;;13.40;50.10;;;;;;5081175;28;20377;-71
2022/03/07 06:55:40;;;;;;;;;;;13.40;50.10;;;;;;5071976;28;20408;-73
2022/03/07 06:58:08;;;;;;;;;;;13.40;50.00;;;;;;5073233;28;20249;-73
2022/03/07 07:00:35;;;;;;;;;;;13.50;50.10;;;;;;5086425;28;19946;-71
2022/03/07 07:03:02;;;;;;;;;;;13.40;50.30;;;;;;5074750;28;19924;-71
2022/03/07 07:05:29;;;;;;;;;;;13.50;50.10;;;;;;5073912;28;19929;-71
2022/03/07 07:07:56;;;;;;;;;;;13.40;49.80;;;;;;5076550;28;20026;-72
2022/03/07 07:10:23;;;;;;;;;;;13.50;50.10;;;;;;5092981;28;19924;-73
2022/03/07 07:12:50;;;;;;;;;;;13.50;50.00;;;;;;5092814;28;19931;-72
2022/03/07 07:15:17;;;;;;;;;;;13.50;50.00;;;;;;5090216;28;20312;-72
2022/03/07 07:17:44;;;;;;;;;;;13.50;50.00;;;;;;5078763;28;19928;-72
2022/03/07 07:20:11;;;;;;;;;;;13.50;50.00;;;;;;5082733;28;20456;-73
2022/03/07 07:22:38;;;;;;;;;;;13.60;50.00;;;;;;5077988;28;19925;-72
2022/03/07 07:25:06;;;;;;;;;;;13.60;50.00;;;;;;5071397;28;19963;-70
2022/03/07 07:27:32;;;;;;;;;;;13.60;50.00;;;;;;5077787;28;20301;-72
2022/03/07 07:29:59;;;;;;;;;;;13.60;50.00;;;;;;5083220;28;20329;-70
2022/03/07 07:32:27;;;;;;;;;;;13.60;49.90;;;;;;5079636;28;20288;-72
2022/03/07 07:34:54;;;;;;;;;;;13.60;49.90;;;;;;5080879;28;19924;-72
2022/03/07 07:37:20;;;;;;;;;;;13.60;49.90;;;;;;5078838;28;19924;-72
2022/03/07 07:39:47;;;;;;;;;;;13.70;49.90;;;;;;5085680;28;19999;-72
2022/03/07 07:42:14;;;;;;;;;;;13.70;49.90;;;;;;5083365;28;19930;-72
2022/03/07 07:44:40;;;;;;;;;;;13.70;49.90;;;;;;5075069;28;19924;-73
2022/03/07 07:47:09;;;;;;;;;;;13.70;49.80;;;;;;5070937;28;19925;-72
2022/03/07 07:49:37;;;;;;;;;;;13.70;49.80;;;;;;5072502;28;19928;-72
2022/03/07 07:52:03;;;;;;;;;;;13.70;49.80;;;;;;5080409;28;19924;-73
2022/03/07 07:54:31;;;;;;;;;;;13.80;49.80;;;;;;5084618;28;20031;-71
2022/03/07 07:56:57;;;;;;;;;;;13.80;49.80;;;;;;5071283;28;19924;-73
2022/03/07 07:59:25;;;;;;;;;;;13.90;49.70;;;;;;5071082;28;19929;-71
2022/03/07 08:01:51;;;;;;;;;;;13.80;49.90;;;;;;5073370;28;20008;-73
2022/03/07 08:04:18;;;;;;;;;;;13.90;50.20;;;;;;5081708;28;20431;-72
2022/03/07 08:06:46;;;;;;;;;;;14.00;50.10;;;;;;5082494;28;20380;-72
2022/03/07 08:09:12;;;;;;;;;;;14.10;49.90;;;;;;5081458;28;20583;-70
2022/03/07 08:11:39;;;;;;;;;;;14.10;49.70;;;;;;5075775;28;20015;-72
2022/03/07 08:14:05;;;;;;;;;;;14.20;49.70;;;;;;5082537;28;19924;-72
2022/03/07 08:16:32;;;;;;;;;;;14.20;49.60;;;;;;5082459;28;19924;-73
2022/03/07 08:18:58;;;;;;;;;;;14.20;49.70;;;;;;5079754;28;19940;-70
2022/03/07 08:21:25;;;;;;;;;;;14.20;49.50;;;;;;5081714;28;19927;-72
2022/03/07 08:23:54;;;;;;;;;;;14.30;49.50;;;;;;5078897;28;19935;-72
2022/03/07 08:26:21;;;;;;;;;;;14.30;49.50;;;;;;5082190;28;19931;-70
2022/03/07 08:28:48;;;;;;;;;;;14.30;49.40;;;;;;5080067;28;19924;-72
2022/03/07 08:31:15;;;;;;;;;;;14.30;49.50;;;;;;5092736;28;20007;-73
2022/03/07 08:33:41;;;;;;;;;;;14.30;49.40;;;;;;5088201;28;19934;-72
2022/03/07 08:36:08;;;;;;;;;;;14.30;49.40;;;;;;5083357;28;19924;-72
2022/03/07 08:38:34;;;;;;;;;;;14.90;49.60;;;;;;5084084;28;19925;-72
2022/03/07 08:41:02;;;;;;;;;;;14.40;49.40;;;;;;5084186;28;19935;-71
2022/03/07 08:43:29;;;;;;;;;;;14.30;49.20;;;;;;5084937;28;19931;-72
2022/03/07 08:45:56;;;;;;;;;;;14.30;49.20;;;;;;5076648;28;19924;-72
2022/03/07 08:48:22;;;;;;;;;;;14.40;49.20;;;;;;5079810;28;19931;-72
2022/03/07 08:50:49;;;;;;;;;;;14.40;49.50;;;;;;5075727;28;19924;-72
2022/03/07 08:53:16;;;;;;;;;;;14.40;49.30;;;;;;5074803;28;19924;-72
2022/03/07 08:55:42;;;;;;;;;;;14.40;49.30;;;;;;5074233;28;19928;-72
2022/03/07 08:58:10;;;;;;;;;;;14.40;49.30;;;;;;5075382;28;19925;-72
2022/03/07 09:00:37;;;;;;;;;;;14.40;49.30;;;;;;5075213;28;19924;-72
2022/03/07 09:03:04;;;;;;;;;;;14.50;49.20;;;;;;5076069;28;19931;-72
2022/03/07 09:05:30;;;;;;;;;;;14.50;49.20;;;;;;5095344;28;19924;-72
2022/03/07 09:07:57;;;;;;;;;;;14.50;49.20;;;;;;5095371;28;20424;-73
2022/03/07 09:10:23;;;;;;;;;;;14.50;49.20;;;;;;5094151;28;20548;-69
2022/03/07 09:12:50;;;;;;;;;;;14.50;49.10;;;;;;5094492;28;20381;-69
2022/03/07 09:15:18;;;;;;;;;;;14.50;49.10;;;;;;5074625;28;19925;-69
2022/03/07 09:17:44;;;;;;;;;;;14.50;49.10;;;;;;5074808;28;20011;-69
2022/03/07 09:20:16;;;;;;;;;;;14.50;49.10;;;;;;5073516;28;19924;-71
2022/03/07 09:22:43;;;;;;;;;;;14.50;49.10;;;;;;5074926;28;19972;-69
2022/03/07 09:25:10;;;;;;;;;;;14.50;49.10;;;;;;5091548;28;19924;-69
2022/03/07 09:27:37;;;;;;;;;;;14.50;49.10;;;;;;5093615;28;19962;-69
2022/03/07 09:30:04;;;;;;;;;;;14.50;49.00;;;;;;5093860;28;20007;-69
2022/03/07 09:32:32;;;;;;;;;;;14.50;49.00;;;;;;5093765;28;19931;-70
2022/03/07 09:34:58;;;;;;;;;;;14.50;49.00;;;;;;5078622;28;20397;-72
2022/03/07 09:37:25;;;;;;;;;;;14.50;49.00;;;;;;5073075;28;19932;-69
2022/03/07 09:39:51;;;;;;;;;;;14.60;49.10;;;;;;5074844;28;19924;-69
2022/03/07 09:42:18;;;;;;;;;;;14.60;49.10;;;;;;5073607;28;19924;-69
2022/03/07 09:44:45;;;;;;;;;;;13.30;48.30;;;;;;5088363;28;20007;-71
2022/03/07 09:47:12;;;;;;;;;;;14.60;49.10;;;;;;5093244;28;19930;-69
2022/03/07 09:49:40;;;;;;;;;;;14.60;49.00;;;;;;5093680;28;19959;-71
2022/03/07 09:52:07;;;;;;;;;;;14.60;49.00;;;;;;5095092;28;20304;-72
2022/03/07 09:54:33;;;;;;;;;;;14.60;49.00;;;;;;5093837;28;19950;-69
2022/03/07 09:57:00;;;;;;;;;;;14.60;49.00;;;;;;5094381;28;19946;-69
2022/03/07 09:59:27;;;;;;;;;;;14.70;49.00;;;;;;5093387;28;19924;-69
2022/03/07 10:02:00;;;;;;;;;;;14.70;49.00;;;;;;5094550;28;19927;-69
2022/03/07 10:04:27;;;;;;;;;;;14.70;48.90;;;;;;5083109;28;19936;-69
2022/03/07 10:06:55;;;;;;;;;;;14.70;48.90;;;;;;5074139;28;19931;-69
2022/03/07 10:09:22;;;;;;;;;;;14.70;48.90;;;;;;5074107;28;19925;-69
2022/03/07 10:11:51;;;;;;;;;;;14.70;48.90;;;;;;5074864;28;19938;-69
2022/03/07 10:14:18;;;;;;;;;;;14.70;48.90;;;;;;5094816;28;20291;-69
2022/03/07 10:16:45;;;;;;;;;;;14.70;48.90;;;;;;5092827;28;20380;-68
2022/03/07 10:19:12;;;;;;;;;;;14.80;48.90;;;;;;5093214;28;19924;-72
2022/03/07 10:21:44;;;;;;;;;;;14.80;48.90;;;;;;5092237;28;20384;-69
2022/03/07 10:24:12;;;;;;;;;;;14.80;48.90;;;;;;5072938;28;19924;-69
2022/03/07 10:26:39;;;;;;;;;;;14.80;48.90;;;;;;5071810;28;19924;-69
2022/03/07 10:29:06;;;;;;;;;;;14.80;48.90;;;;;;5075496;28;19924;-69
2022/03/07 10:31:32;;;;;;;;;;;14.80;48.80;;;;;;5082201;28;19924;-69
2022/03/07 10:34:03;;;;;;;;;;;14.80;48.80;;;;;;5084271;28;19932;-69
2022/03/07 10:36:33;;;;;;;;;;;14.80;48.70;;;;;;5081756;28;19925;-69
2022/03/07 10:38:59;;;;;;;;;;;14.80;48.70;;;;;;5079990;28;20296;-69
2022/03/07 10:41:34;;;;;;;;;;;14.80;48.70;;;;;;5082455;28;19946;-73
2022/03/07 10:44:01;;;;;;;;;;;14.80;48.80;;;;;;5086688;28;19970;-70
2022/03/07 10:46:27;;;;;;;;;;;14.80;48.80;;;;;;5093293;28;19931;-70
2022/03/07 10:48:54;;;;;;;;;;;14.80;48.80;;;;;;5086326;28;19931;-71
2022/03/07 10:51:21;;;;;;;;;;;14.80;48.80;;;;;;5093606;28;19924;-72
2022/03/07 10:53:48;;;;;;;;;;;14.90;48.90;;;;;;5091408;28;19924;-70
2022/03/07 10:56:15;;;;;;;;;;;14.80;48.80;;;;;;5079481;28;19924;-70
2022/03/07 10:58:46;;;;;;;;;;;14.90;48.80;;;;;;5081097;28;19959;-69
2022/03/07 11:01:13;;;;;;;;;;;14.90;48.80;;;;;;5085414;28;19924;-70
2022/03/07 11:03:40;;;;;;;;;;;14.90;48.80;;;;;;5078646;28;19930;-70
2022/03/07 11:06:06;;;;;;;;;;;14.90;48.80;;;;;;5076857;28;20399;-70
2022/03/07 11:08:33;;;;;;;;;;;14.90;48.80;;;;;;5082043;28;20308;-73
2022/03/07 11:11:00;;;;;;;;;;;15.00;48.70;;;;;;5078483;28;19946;-69
2022/03/07 11:13:29;;;;;;;;;;;15.00;48.80;;;;;;5081140;28;20022;-69
2022/03/07 11:15:57;;;;;;;;;;;15.10;48.80;;;;;;5073749;28;19932;-70
2022/03/07 11:18:24;;;;;;;;;;;15.10;48.80;;;;;;5084174;28;19930;-70
2022/03/07 11:20:50;;;;;;;;;;;15.10;48.70;;;;;;5077480;28;19924;-70
2022/03/07 11:23:17;;;;;;;;;;;15.10;48.70;;;;;;5073978;28;19930;-69
2022/03/07 11:25:44;;;;;;;;;;;15.20;48.70;;;;;;5081212;28;19934;-69
2022/03/07 11:28:12;;;;;;;;;;;15.20;48.70;;;;;;5076997;28;20019;-70
2022/03/07 11:30:41;;;;;;;;;;;15.20;48.60;;;;;;5091866;28;19970;-70
2022/03/07 11:33:10;;;;;;;;;;;15.30;48.70;;;;;;5086220;28;20384;-69
2022/03/07 11:35:37;;;;;;;;;;;15.30;48.60;;;;;;5091312;28;19924;-69
2022/03/07 11:38:10;;;;;;;;;;;15.30;48.60;;;;;;5091397;28;19931;-67
2022/03/07 11:40:38;;;;;;;;;;;15.30;48.60;;;;;;5091149;28;20281;-70
2022/03/07 11:43:07;;;;;;;;;;;15.40;48.60;;;;;;5083319;28;19930;-70
2022/03/07 11:45:38;;;;;;;;;;;15.40;48.60;;;;;;5071337;28;19958;-70
2022/03/07 11:48:12;;;;;;;;;;;15.40;48.50;;;;;;5071032;28;19924;-70
2022/03/07 11:50:40;;;;;;;;;;;15.40;48.50;;;;;;5071614;28;19931;-70
2022/03/07 11:53:07;;;;;;;;;;;15.50;48.50;;;;;;5072294;28;20015;-70
2022/03/07 11:55:33;;;;;;;;;;;15.50;48.50;;;;;;5084270;28;19936;-70
2022/03/07 11:58:01;;;;;;;;;;;15.50;48.50;;;;;;5079811;28;19929;-73
2022/03/07 12:00:32;;;;;;;;;;;15.50;48.40;;;;;;5071404;28;20015;-70
2022/03/07 12:02:59;;;;;;;;;;;15.50;48.40;;;;;;5076255;28;19928;-71
2022/03/07 12:05:29;;;;;;;;;;;15.50;48.30;;;;;;5072474;28;19932;-69
2022/03/07 12:08:07;;;;;;;;;;;15.60;48.60;;;;;;5082449;28;19936;-69
2022/03/07 12:10:34;;;;;;;;;;;15.60;48.70;;;;;;5078888;28;19932;-69
2022/03/07 12:13:07;;;;;;;;;;;15.40;48.40;;;;;;5085252;28;19924;-72
2022/03/07 12:15:42;;;;;;;;;;;15.60;48.50;;;;;;5086241;28;19924;-71
2022/03/07 12:18:09;;;;;;;;;;;15.60;48.50;;;;;;5089528;28;20002;-70
2022/03/07 12:20:35;;;;;;;;;;;15.60;48.50;;;;;;5090928;28;19934;-72
2022/03/07 12:23:02;;;;;;;;;;;15.60;48.50;;;;;;5094344;28;19928;-70
2022/03/07 12:25:30;;;;;;;;;;;15.60;48.60;;;;;;5080805;28;19928;-72
2022/03/07 12:27:57;;;;;;;;;;;15.60;48.60;;;;;;5083853;28;19924;-71
2022/03/07 12:30:24;;;;;;;;;;;15.60;48.60;;;;;;5078264;28;19925;-71
2022/03/07 12:32:51;;;;;;;;;;;15.60;48.60;;;;;;5086305;28;19924;-71
2022/03/07 12:35:17;;;;;;;;;;;15.50;48.50;;;;;;5087176;28;19924;-72
2022/03/07 12:37:44;;;;;;;;;;;15.50;48.40;;;;;;5095244;28;20365;-71
2022/03/07 12:40:11;;;;;;;;;;;15.40;48.40;;;;;;5086952;28;20296;-71
2022/03/07 12:42:42;;;;;;;;;;;15.50;48.40;;;;;;5091357;28;19969;-71
2022/03/07 12:45:09;;;;;;;;;;;15.40;48.40;;;;;;5091699;28;19931;-72
2022/03/07 12:47:36;;;;;;;;;;;15.40;48.40;;;;;;5075987;28;19929;-71
2022/03/07 12:50:03;;;;;;;;;;;15.40;48.30;;;;;;5074837;28;19971;-72
2022/03/07 12:52:30;;;;;;;;;;;15.30;48.30;;;;;;5080387;28;19977;-71
2022/03/07 12:54:57;;;;;;;;;;;15.30;48.30;;;;;;5083981;28;19925;-71
2022/03/07 12:57:24;;;;;;;;;;;15.30;48.30;;;;;;5074293;28;19924;-71
2022/03/07 12:59:56;;;;;;;;;;;15.30;48.30;;;;;;5076017;28;19931;-71
2022/03/07 13:02:23;;;;;;;;;;;15.30;48.20;;;;;;5079502;28;19924;-71
2022/03/07 13:04:53;;;;;;;;;;;15.30;48.10;;;;;;5087194;28;20389;-71
2022/03/07 13:07:20;;;;;;;;;;;15.20;48.00;;;;;;5095917;28;19924;-71
2022/03/07 13:09:47;;;;;;;;;;;15.20;47.70;;;;;;5090082;28;19928;-69
2022/03/07 13:12:13;;;;;;;;;;;15.10;47.70;;;;;;5074169;28;20006;-69
2022/03/07 13:14:40;;;;;;;;;;;15.10;47.90;;;;;;5081067;28;19924;-69
2022/03/07 13:17:09;;;;;;;;;;;15.10;47.90;;;;;;5094778;28;19935;-69
2022/03/07 13:19:35;;;;;;;;;;;15.10;47.90;;;;;;5095177;28;19985;-69
2022/03/07 13:22:02;;;;;;;;;;;15.10;47.90;;;;;;5094492;28;19930;-69
2022/03/07 13:24:29;;;;;;;;;;;15.00;47.90;;;;;;5080411;28;19934;-69
2022/03/07 13:26:56;;;;;;;;;;;15.00;47.90;;;;;;5084729;28;19927;-69
2022/03/07 13:29:24;;;;;;;;;;;15.00;47.90;;;;;;5094871;28;20373;-70
2022/03/07 13:31:52;;;;;;;;;;;15.00;48.10;;;;;;5075751;28;20003;-69
2022/03/07 13:34:20;;;;;;;;;;;15.00;48.10;;;;;;5093306;28;19955;-69
2022/03/07 13:36:48;;;;;;;;;;;15.00;48.10;;;;;;5094927;28;19928;-70
2022/03/07 13:39:22;;;;;;;;;;;14.90;48.10;;;;;;5090914;28;19958;-70
2022/03/07 13:41:49;;;;;;;;;;;14.90;48.10;;;;;;5073721;28;19924;-70
2022/03/07 13:44:16;;;;;;;;;;;14.90;48.10;;;;;;5077840;28;19932;-70
2022/03/07 13:46:51;;;;;;;;;;;14.90;48.10;;;;;;5094576;28;20292;-69
2022/03/07 13:49:17;;;;;;;;;;;14.80;48.10;;;;;;5094557;28;19924;-69
2022/03/07 13:51:45;;;;;;;;;;;14.80;48.00;;;;;;5088460;28;19983;-69
2022/03/07 13:54:12;;;;;;;;;;;14.80;48.10;;;;;;5077850;28;19931;-69
2022/03/07 13:56:38;;;;;;;;;;;14.80;48.60;;;;;;5084724;28;19924;-69
2022/03/07 13:59:10;;;;;;;;;;;14.80;48.10;;;;;;5074631;28;19924;-71
2022/03/07 14:01:37;;;;;;;;;;;14.70;48.30;;;;;;5073558;28;19924;-69
2022/03/07 14:04:10;;;;;;;;;;;14.70;48.90;;;;;;5086552;28;19924;-68
2022/03/07 14:06:36;;;;;;;;;;;14.80;49.20;;;;;;5078529;28;19934;-69
2022/03/07 14:09:04;;;;;;;;;;;14.80;49.00;;;;;;5094153;28;19924;-70
2022/03/07 14:11:33;;;;;;;;;;;14.80;48.90;;;;;;5089814;28;19928;-71
2022/03/07 14:13:59;;;;;;;;;;;14.80;48.90;;;;;;5089749;28;19969;-69
2022/03/07 14:16:34;;;;;;;;;;;14.80;49.20;;;;;;5072466;28;19933;-71